• Join FlightAware (Why Join?)
  • Login
  • US Flag 
03:57AM EDT


 

Airport Tracker/Info


-or-


 

Live Flight TrackerFlight Track Log ✈ SWA4703 ✈ 08-Aug-2014 ✈ KHOU - KLAX

Flight Track Log - Related Links

Times and Time Zones

All times are in EDT time to prevent confusion due to time zone crossing. See the SWA4703 flight status page for this flight to view local times or setup timezone preferences in your user account.

Time Position Orientation Groundspeed Altitude Reporting Facility
EDT Latitude Longitude Course Direction KTS MPH feet Rate Location/Type
12:50PM 29.6317 -95.2944 213° Southwest 179 206 1,000  Level Houston Center
12:52PM 29.5800 -95.3328 213° Southwest 187 215 3,600 2,280 Climbing Houston Center
12:53PM 29.5317 -95.3928 227° Southwest 262 302 6,300 2,760 Climbing Houston Center
12:54PM 29.5747 -95.4503 311° West 290 334 8,900 2,220 Climbing Houston Center
12:54PM 29.5736 -95.4511 213° Southwest 282 325 8,800 2,160 Descending Houston Center
12:55PM 29.6533 -95.4772 344° North 292 336 11,500 2,460 Climbing Houston Center
12:56PM 29.7586 -95.5097 345° North 325 374 13,900 1,680 Climbing Houston Center
12:57PM 29.8414 -95.5697 328° Northwest 371 427 15,000 1,260 Climbing Houston Center
12:58PM 29.8608 -95.6872 281° West 373 429 16,600 1,680 Climbing Houston Center
12:59PM 29.8792 -95.8106 280° West 389 448 18,600 1,860 Climbing Houston Center
01:00PM 29.8983 -95.9389 280° West 402 463 20,500 1,920 Climbing Houston Center
01:01PM 29.9197 -96.0889 279° West 416 479 22,600 1,500 Climbing Houston Center
01:02PM 29.9392 -96.2231 280° West 422 486 23,600 1,140 Climbing Houston Center
01:03PM 29.9608 -96.3606 280° West 433 498 25,000 1,200 Climbing Houston Center
01:04PM 29.9836 -96.5011 281° West 446 513 26,200 1,320 Climbing Houston Center
01:05PM 30.0103 -96.6764 280° West 459 528 27,800 1,320 Climbing Houston Center
01:06PM 30.0328 -96.8242 280° West 469 540 29,000 1,020 Climbing Houston Center
01:07PM 30.0553 -96.9772 280° West 482 555 30,000 1,020 Climbing Houston Center
01:08PM 30.0789 -97.1314 280° West 488 562 31,200 1,140 Climbing Houston Center
01:09PM 30.1022 -97.2922 280° West 488 562 32,400 1,260 Climbing Houston Center
01:10PM 30.1253 -97.4494 280° West 494 568 33,900 1,380 Climbing Houston Center
01:11PM 30.1525 -97.6317 280° West 485 558 35,300 960 Climbing Houston Center
01:13PM 30.1764 -97.7842 280° West 484 557 36,000 300 Climbing Houston Center
01:14PM 30.2119 -97.9492 284° West 481 554 36,000  Level Houston Center
01:15PM 30.2425 -98.0981 283° West 481 554 36,000  Level Houston Center
01:16PM 30.2750 -98.2583 283° West 480 552 36,000  Level Houston Center
01:17PM 30.3050 -98.4058 283° West 476 548 36,000  Level Houston Center
01:18PM 30.3378 -98.5583 284° West 469 540 36,000  Level Houston Center
01:19PM 30.3686 -98.7050 284° West 469 540 36,000  Level Houston Center
01:20PM 30.3992 -98.8497 284° West 467 537 36,000  Level Houston Center
01:21PM 30.4300 -98.9953 284° West 466 536 36,000  Level Houston Center
01:22PM 30.4603 -99.1492 283° West 466 536 36,000  Level Houston Center
01:23PM 30.4925 -99.2958 284° West 468 539 36,000  Level Houston Center
01:24PM 30.5228 -99.4414 284° West 469 540 36,000  Level Houston Center
01:25PM 30.5581 -99.6172 283° West 467 537 36,000  Level Houston Center
01:26PM 30.5878 -99.7628 283° West 467 537 36,000  Level Houston Center
01:27PM 30.6108 -99.9125 280° West 472 543 36,000  Level Houston Center
01:28PM 30.6283 -100.0606 278° West 471 542 36,000  Level Houston Center
01:29PM 30.6469 -100.2092 278° West 471 542 36,000  Level Houston Center
01:30PM 30.6681 -100.3864 278° West 469 540 36,000  Level Houston Center
01:31PM 30.6858 -100.5331 278° West 468 539 36,000  Level Houston Center
01:32PM 30.7025 -100.6828 277° West 467 537 36,000  Level Houston Center
01:33PM 30.7200 -100.8325 278° West 468 539 36,000  Level Houston Center
01:34PM 30.7383 -100.9803 278° West 467 537 36,000  Level Houston Center
01:35PM 30.7761 -101.1553 284° West 467 537 36,000  Level Houston Center
01:36PM 30.8075 -101.2986 284° West 464 534 36,000  Level Houston Center
01:37PM 30.8406 -101.4414 285° West 462 532 36,000  Level Houston Center
01:38PM 30.8714 -101.5856 284° West 462 532 36,000  Level Houston Center
01:39PM 30.9067 -101.7397 285° West 461 531 36,000  Level Houston Center
01:40PM 30.9378 -101.8844 284° West 461 531 36,000  Level Houston Center
01:42PM 30.9689 -102.0286 284° West 461 531 36,000  Level Houston Center
01:43PM 31.0017 -102.1825 284° West 465 535 36,000  Level Albuquerque Center
01:44PM 31.0331 -102.3278 284° West 467 537 36,000  Level Albuquerque Center
01:45PM 31.0633 -102.4697 284° West 456 525 36,000  Level Albuquerque Center
01:46PM 31.0917 -102.6081 283° West 446 513 36,000  Level Albuquerque Center
01:47PM 31.1278 -102.7775 284° West 446 513 36,000  Level Albuquerque Center
01:48PM 31.1572 -102.9178 284° West 446 513 36,000  Level Albuquerque Center
01:49PM 31.1872 -103.0592 284° West 446 513 36,000  Level Albuquerque Center
01:50PM 31.2161 -103.2000 284° West 446 513 36,000  Level Albuquerque Center
01:51PM 31.2436 -103.3419 283° West 447 514 36,000  Level Albuquerque Center
01:52PM 31.2736 -103.4836 284° West 447 514 36,000  Level Albuquerque Center
01:53PM 31.3081 -103.6539 283° West 447 514 36,000  Level Albuquerque Center
01:54PM 31.3342 -103.7747 284° West 447 514 36,000  Level Albuquerque Center
01:55PM 31.3669 -103.9425 283° West 446 513 36,000  Level Albuquerque Center
01:56PM 31.3958 -104.0811 284° West 444 511 36,000  Level Albuquerque Center
01:57PM 31.4228 -104.2203 283° West 443 510 36,000  Level Albuquerque Center
01:58PM 31.4519 -104.3589 284° West 443 510 36,000  Level Albuquerque Center
01:59PM 31.4794 -104.4981 283° West 442 509 36,000  Level Albuquerque Center
02:00PM 31.5114 -104.6661 283° West 442 509 36,000  Level Albuquerque Center
02:01PM 31.5397 -104.8061 283° West 442 509 36,000  Level Albuquerque Center
02:02PM 31.5658 -104.9464 282° West 443 510 36,000  Level Albuquerque Center
02:03PM 31.5939 -105.0856 283° West 443 510 36,000  Level Albuquerque Center
02:04PM 31.6192 -105.2250 282° West 442 509 36,000  Level Albuquerque Center
02:05PM 31.6500 -105.3939 282° West 442 509 36,000  Level Albuquerque Center
02:06PM 31.6769 -105.5331 283° West 442 509 36,000  Level Albuquerque Center
02:07PM 31.7028 -105.6736 282° West 442 509 36,000  Level Albuquerque Center
02:08PM 31.7297 -105.8139 283° West 442 509 36,000  Level Albuquerque Center
02:09PM 31.7553 -105.9550 282° West 442 509 36,000  Level Albuquerque Center
02:10PM 31.7867 -106.1233 282° West 442 509 36,000  Level Albuquerque Center
02:11PM 31.8144 -106.2617 283° West 438 504 36,000  Level Albuquerque Center
02:13PM 31.8256 -106.4064 275° West 443 510 36,000  Level Albuquerque Center
02:14PM 31.8372 -106.5658 275° West 437 503 36,000  Level Albuquerque Center
02:15PM 31.8481 -106.7039 275° West 438 504 36,000  Level Albuquerque Center
02:16PM 31.8586 -106.8442 275° West 435 501 36,000  Level Albuquerque Center
02:17PM 31.8689 -106.9864 275° West 435 501 36,000  Level Albuquerque Center
02:18PM 31.8783 -107.1281 275° West 435 501 36,000  Level Albuquerque Center
02:19PM 31.8875 -107.2700 274° West 435 501 36,000  Level Albuquerque Center
02:20PM 31.8986 -107.4417 274° West 435 501 36,000  Level Albuquerque Center
02:21PM 31.9089 -107.5825 275° West 435 501 36,000  Level Albuquerque Center
02:22PM 31.9172 -107.7242 274° West 435 501 36,000  Level Albuquerque Center
02:23PM 31.9419 -107.8631 282° West 436 502 36,000  Level Albuquerque Center
02:24PM 31.9747 -107.9992 286° West 431 496 36,000  Level Albuquerque Center
02:25PM 32.0067 -108.1358 285° West 431 496 36,000  Level Albuquerque Center
02:26PM 32.0378 -108.2700 285° West 430 495 36,000  Level Albuquerque Center
02:27PM 32.0761 -108.4297 286° West 424 488 36,000  Level Albuquerque Center
02:28PM 32.1075 -108.5653 285° West 424 488 36,000  Level Albuquerque Center
02:29PM 32.1386 -108.6975 286° West 421 484 36,000  Level Albuquerque Center
02:30PM 32.1683 -108.8300 285° West 421 484 36,000  Level Albuquerque Center
02:31PM 32.2006 -108.9636 286° West 421 484 36,000  Level Albuquerque Center
02:32PM 32.2303 -109.0958 285° West 420 483 36,000  Level Albuquerque Center
02:33PM 32.2600 -109.2292 285° West 420 483 36,000  Level Albuquerque Center
02:34PM 32.3108 -109.3847 291° West 420 483 36,000  Level Albuquerque Center
02:35PM 32.3553 -109.5144 292° West 420 483 36,000  Level Albuquerque Center
02:36PM 32.3997 -109.6414 293° West 420 483 36,000  Level Albuquerque Center
02:37PM 32.4456 -109.7714 293° West 425 489 36,000  Level Albuquerque Center
02:38PM 32.4897 -109.8964 293° West 419 482 36,000  Level Albuquerque Center
02:39PM 32.5336 -110.0225 292° West 415 478 36,000  Level Albuquerque Center
02:40PM 32.5756 -110.1486 292° West 414 476 36,000  Level Albuquerque Center
02:41PM 32.6272 -110.3000 292° West 413 475 36,000  Level Albuquerque Center
02:43PM 32.6708 -110.4264 292° West 413 475 36,000  Level Albuquerque Center
02:44PM 32.7142 -110.5533 292° West 413 475 36,000  Level Albuquerque Center
02:45PM 32.7547 -110.6747 292° West 413 475 36,000  Level Albuquerque Center
02:46PM 32.7978 -110.8022 292° West 413 475 36,000  Level Albuquerque Center
02:47PM 32.8478 -110.9536 291° West 413 475 36,000  Level Albuquerque Center
02:48PM 32.8903 -111.0800 292° West 413 475 36,000  Level Albuquerque Center
02:49PM 32.9331 -111.2014 293° West 402 463 36,000  Level Albuquerque Center
02:50PM 32.9739 -111.3267 291° West 403 464 36,000  Level Albuquerque Center
02:51PM 33.0150 -111.4522 291° West 406 467 36,000  Level Albuquerque Center
02:52PM 33.0558 -111.5775 291° West 406 467 36,000  Level Albuquerque Center
02:53PM 33.1044 -111.7300 291° West 407 468 36,000  Level Albuquerque Center
02:54PM 33.1456 -111.8575 291° West 407 468 36,000  Level Albuquerque Center
02:55PM 33.1878 -111.9875 291° West 415 478 36,000  Level Albuquerque Center
02:56PM 33.2289 -112.1172 291° West 415 478 36,000  Level Albuquerque Center
02:57PM 33.2714 -112.2475 291° West 415 478 36,000  Level Albuquerque Center
02:58PM 33.3122 -112.3792 290° West 419 482 36,000  Level Albuquerque Center
02:59PM 33.3539 -112.5094 291° West 419 482 36,000  Level Albuquerque Center
03:00PM 33.3975 -112.6467 291° West 418 481 36,000  Level Albuquerque Center
03:01PM 33.4389 -112.7753 291° West 418 481 36,000  Level Albuquerque Center
03:02PM 33.4903 -112.9275 292° West 417 480 36,000  Level Albuquerque Center
03:03PM 33.5369 -113.0556 294° West 417 480 36,000  Level Albuquerque Center
03:04PM 33.5817 -113.1831 293° West 417 480 36,000  Level Albuquerque Center
03:05PM 33.6286 -113.3125 294° West 420 483 36,000  Level Albuquerque Center
03:06PM 33.6808 -113.4644 292° West 422 486 36,000  Level Albuquerque Center
03:07PM 33.7267 -113.5942 293° West 422 486 36,000  Level Albuquerque Center
03:08PM 33.7725 -113.7244 293° West 422 486 36,000  Level Albuquerque Center
03:09PM 33.8186 -113.8544 293° West 422 486 36,000  Level Albuquerque Center
03:10PM 33.8642 -113.9847 293° West 422 486 36,000  Level Albuquerque Center
03:11PM 33.9103 -114.1194 292° West 425 489 36,000  Level Los Angeles Center
03:12PM 33.9375 -114.2553 284° West 427 491 36,000  Level Los Angeles Center
03:13PM 33.9522 -114.3931 277° West 421 484 36,000  Level Los Angeles Center
03:14PM 33.9686 -114.5319 278° West 421 484 36,000  Level Los Angeles Center
03:16PM 33.9897 -114.6992 279° West 421 484 36,000  Level Los Angeles Center
03:17PM 34.0067 -114.8394 278° West 422 486 36,000  Level Los Angeles Center
03:18PM 34.0231 -114.9797 278° West 422 486 36,000  Level Los Angeles Center
03:19PM 34.0397 -115.1200 278° West 423 487 36,000  Level Los Angeles Center
03:20PM 34.0561 -115.2606 278° West 423 487 36,000  Level Los Angeles Center
03:21PM 34.0714 -115.4028 277° West 425 489 36,000  Level Los Angeles Center
03:22PM 34.0906 -115.5717 278° West 426 490 36,000  Level Los Angeles Center
03:23PM 34.1058 -115.7119 278° West 426 490 36,000  Level Los Angeles Center
03:24PM 34.0997 -115.8531 267° West 425 489 36,000 -540 Level Los Angeles Center
03:25PM 34.0808 -115.9883 260° West 418 481 34,900 -1,920 Descending Los Angeles Center
03:26PM 34.0589 -116.1253 259° West 417 480 32,100 -2,640 Descending Los Angeles Center
03:27PM 34.0350 -116.2878 260° West 416 479 29,500 -2,280 Descending Los Angeles Center
03:28PM 34.0153 -116.4178 260° West 400 460 27,500 -1,920 Descending Los Angeles Center
03:29PM 33.9994 -116.5456 262° West 391 450 25,600 -2,040 Descending Los Angeles Center
03:30PM 33.9889 -116.6872 265° West 381 438 23,400 -1,980 Descending Los Angeles Center
03:31PM 33.9789 -116.8067 264° West 363 418 21,600 -1,800 Descending Los Angeles Center
03:32PM 33.9689 -116.9336 265° West 358 412 19,700 -1,800 Descending Los Angeles Center
03:33PM 33.9667 -117.0167 268° West 344 396 18,500 -1,620 Descending Southern California TRACON
03:34PM 33.9500 -117.1333 260° West 348 400 17,000 -1,260 Descending Southern California TRACON
03:35PM 33.9500 -117.2500 270° West 345 397 16,000 -1,380 Descending Southern California TRACON
03:36PM 33.9333 -117.3667 260° West 337 388 14,300 -1,740 Descending Southern California TRACON
03:37PM 33.9667 -117.4667 292° West 330 380 12,600 -1,740 Descending Southern California TRACON
03:38PM 34.0000 -117.5667 292° West 323 372 10,900 -1,260 Descending Southern California TRACON
03:39PM 34.0167 -117.6667 281° West 324 373 10,100 -900 Descending Southern California TRACON
03:40PM 34.0167 -117.7667 270° West 271 312 9,100 -1,140 Descending Southern California TRACON
03:41PM 34.0000 -117.8500 256° West 273 314 7,900 -1,200 Descending Southern California TRACON
03:42PM 34.0000 -117.9333 270° West 272 313 6,700 -1,080 Descending Southern California TRACON
03:43PM 33.9833 -118.0167 256° West 243 280 5,800 -900 Descending Southern California TRACON
03:44PM 33.9833 -118.1000 270° West 235 270 4,900 -900 Descending Southern California TRACON
03:45PM 33.9783 -118.1417 262° West 235 270 4,300 -1,200 Descending Los Angeles Center
03:46PM 33.9697 -118.2264 263° West 222 255 2,900 -1,140 Descending Los Angeles Center
03:47PM 33.9647 -118.2864 264° West 193 222 2,000 -840 Descending Los Angeles Center
03:48PM 33.9589 -118.3381 262° West 172 198 1,200 -780 Descending Los Angeles Center
03:49PM 33.9550 -118.3869 265° West 158 182 400 -780 Descending Los Angeles Center
03:51PM 33.9333 -118.4000 270° West  Level FlightAware Approximate
03:58PM 33.9425 -118.4081 270° West  Level Estimated